Time;durP1;ratioP1;P1;durP2;ratioP2;P2;SDS_P1;SDS_P2;PMS_P1;PMS_P2;Temp;Humidity;BMP_temperature;BMP_pressure;BME280_temperature;BME280_humidity;BME280_pressure;Samples;Min_cycle;Max_cycle;Signal;HPM_P1;HPM_P2
2023/08/23 00:00:11;;;;;;;5.32;3.78;;;;;;;23.72;100.00;96269.63;5096986;28;20028;-66
2023/08/23 00:02:36;;;;;;;7.72;4.03;;;;;;;23.68;100.00;96281.81;5103686;28;20479;-66
2023/08/23 00:05:02;;;;;;;4.22;3.92;;;;;;;23.69;100.00;96278.09;5105913;28;20023;-66
2023/08/23 00:07:28;;;;;;;4.53;4.13;;;;;;;23.66;100.00;96273.97;5109400;28;20051;-66
2023/08/23 00:09:53;;;;;;;4.25;3.80;;;;;;;23.60;100.00;96288.25;5097768;28;20020;-66
2023/08/23 00:12:19;;;;;;;7.00;4.07;;;;;;;23.56;100.00;96281.66;5096613;28;20065;-66
2023/08/23 00:14:44;;;;;;;4.95;4.25;;;;;;;23.50;100.00;96287.84;5095215;28;20059;-66
2023/08/23 00:17:09;;;;;;;4.28;3.88;;;;;;;23.44;100.00;96276.09;5096550;28;20024;-66
2023/08/23 00:19:35;;;;;;;4.72;4.22;;;;;;;23.41;100.00;96281.84;5096120;28;20032;-66
2023/08/23 00:22:02;;;;;;;4.47;4.07;;;;;;;23.36;100.00;96277.13;5094602;28;20034;-66
2023/08/23 00:24:27;;;;;;;4.55;3.72;;;;;;;23.28;100.00;96271.97;5107380;28;20076;-65
2023/08/23 00:26:54;;;;;;;4.18;3.88;;;;;;;23.27;100.00;96262.25;5113815;27;20031;-65
2023/08/23 00:29:19;;;;;;;4.28;3.58;;;;;;;23.27;100.00;96270.31;5089714;28;20100;-66
2023/08/23 00:31:44;;;;;;;4.30;3.90;;;;;;;23.30;100.00;96259.16;5096542;28;20083;-66
2023/08/23 00:34:10;;;;;;;4.38;3.90;;;;;;;23.29;100.00;96261.03;5099908;27;20053;-66
2023/08/23 00:36:35;;;;;;;4.07;3.80;;;;;;;23.29;100.00;96250.28;5106747;28;20032;-66
2023/08/23 00:39:01;;;;;;;6.32;3.75;;;;;;;23.27;100.00;96240.75;5109774;28;20034;-66
2023/08/23 00:41:26;;;;;;;4.03;3.72;;;;;;;23.24;100.00;96252.75;5108861;28;20555;-66
2023/08/23 00:43:52;;;;;;;4.22;3.83;;;;;;;23.14;100.00;96255.00;5095756;28;20047;-66
2023/08/23 00:46:18;;;;;;;4.82;3.95;;;;;;;23.06;100.00;96248.00;5100894;28;20024;-66
2023/08/23 00:48:44;;;;;;;5.97;4.10;;;;;;;23.06;100.00;96237.25;5103583;28;20020;-66
2023/08/23 00:51:12;;;;;;;4.47;4.07;;;;;;;23.10;100.00;96235.81;5102557;27;20023;-66
2023/08/23 00:53:38;;;;;;;9.35;4.13;;;;;;;23.10;100.00;96241.19;5103183;28;20055;-66
2023/08/23 00:56:04;;;;;;;4.60;3.70;;;;;;;23.05;100.00;96249.03;5094464;28;20638;-66
2023/08/23 00:58:30;;;;;;;4.85;4.13;;;;;;;23.01;100.00;96247.78;5095406;28;20066;-66
2023/08/23 01:00:57;;;;;;;7.00;3.90;;;;;;;22.98;100.00;96259.75;5080530;28;20085;-66
2023/08/23 01:03:22;;;;;;;5.15;4.30;;;;;;;22.95;100.00;96248.63;5096376;28;20024;-66
2023/08/23 01:06:06;;;;;;;5.13;4.60;;;;;;;22.94;100.00;96260.41;5100066;28;20057;-66
2023/08/23 01:08:56;;;;;;;4.90;4.40;;;;;;;22.95;100.00;96256.69;5107564;28;20049;-66
2023/08/23 01:11:44;;;;;;;4.82;3.83;;;;;;;22.94;100.00;96255.84;5103396;28;20459;-66
2023/08/23 01:14:19;;;;;;;5.38;3.95;;;;;;;22.87;100.00;96269.25;5094906;28;20040;-65
2023/08/23 01:16:48;;;;;;;5.57;3.80;;;;;;;22.87;100.00;96260.38;5102621;28;20022;-66
2023/08/23 01:19:42;;;;;;;4.80;4.13;;;;;;;22.80;100.00;96260.38;5099855;28;20027;-66
2023/08/23 01:22:10;;;;;;;4.57;4.18;;;;;;;22.78;100.00;96259.75;5099026;28;20054;-66
2023/08/23 01:24:36;;;;;;;4.70;4.22;;;;;;;22.76;100.00;96277.94;5094868;28;20401;-66
2023/08/23 01:27:02;;;;;;;5.15;3.97;;;;;;;22.72;100.00;96284.75;5097335;27;20094;-66
2023/08/23 01:29:27;;;;;;;4.78;4.28;;;;;;;22.69;100.00;96279.78;5106919;28;20500;-66
2023/08/23 01:31:56;;;;;;;4.15;3.83;;;;;;;22.61;100.00;96278.94;5102129;28;20024;-66
2023/08/23 01:34:34;;;;;;;4.70;4.30;;;;;;;22.61;100.00;96270.06;5094744;28;20555;-66
2023/08/23 01:37:03;;;;;;;4.25;3.90;;;;;;;22.64;100.00;96266.13;5106347;28;20020;-66
2023/08/23 01:39:29;;;;;;;4.15;3.85;;;;;;;22.58;100.00;96273.97;5099546;28;20031;-67
2023/08/23 01:41:56;;;;;;;7.07;4.47;;;;;;;22.50;100.00;96268.81;5107291;28;20437;-66
2023/08/23 01:44:21;;;;;;;5.00;4.35;;;;;;;22.45;100.00;96261.34;5103262;28;20035;-66
2023/08/23 01:46:46;;;;;;;6.35;4.22;;;;;;;22.46;100.00;96262.19;5094704;28;20028;-66
2023/08/23 01:49:12;;;;;;;4.55;4.18;;;;;;;22.45;100.00;96273.94;5104321;28;20132;-66
2023/08/23 01:51:37;;;;;;;5.50;4.40;;;;;;;22.45;100.00;96282.00;5108048;28;20498;-66
2023/08/23 01:54:03;;;;;;;6.38;4.57;;;;;;;22.39;100.00;96282.78;5094344;28;20634;-66
2023/08/23 01:56:28;;;;;;;5.07;4.57;;;;;;;;;;5093173;28;20019;-66
2023/08/23 01:58:54;;;;;;;4.47;4.13;;;;;;;22.42;100.00;96266.28;5094275;28;20031;-66
2023/08/23 02:01:19;;;;;;;4.57;4.13;;;;;;;22.45;100.00;96266.72;5098385;28;20031;-66
2023/08/23 02:03:44;;;;;;;6.97;4.68;;;;;;;22.45;100.00;96277.44;5103186;28;20059;-66
2023/08/23 02:06:10;;;;;;;8.43;4.00;;;;;;;22.42;100.00;96271.63;5093963;28;20035;-66
2023/08/23 02:08:35;;;;;;;4.75;4.30;;;;;;;22.37;100.00;96280.31;5092899;28;20067;-66
2023/08/23 02:11:01;;;;;;;4.45;4.05;;;;;;;22.33;100.00;96271.84;5095978;28;20044;-66
2023/08/23 02:13:26;;;;;;;4.55;4.25;;;;;;;22.33;100.00;96263.78;5096004;28;20024;-66
2023/08/23 02:15:52;;;;;;;4.57;4.22;;;;;;;22.34;100.00;96264.63;5096091;28;20031;-66
2023/08/23 02:18:19;;;;;;;4.25;3.90;;;;;;;22.33;100.00;96254.94;5109464;27;20065;-66
2023/08/23 02:20:44;;;;;;;9.30;4.03;;;;;;;22.38;100.00;96256.97;5095721;28;20107;-66
2023/08/23 02:23:09;;;;;;;4.85;4.43;;;;;;;;;;5094047;28;20074;-66
2023/08/23 02:25:35;;;;;;;4.57;4.18;;;;;;;22.38;100.00;96265.03;5096139;28;20023;-66
2023/08/23 02:28:00;;;;;;;4.78;4.32;;;;;;;22.32;100.00;96264.81;5112313;27;20024;-66
2023/08/23 02:30:26;;;;;;;4.38;4.03;;;;;;;22.35;100.00;96260.06;5110161;28;20054;-66
2023/08/23 02:32:51;;;;;;;5.82;4.60;;;;;;;22.32;100.00;96258.63;5087205;28;20054;-66
2023/08/23 02:35:16;;;;;;;4.90;4.50;;;;;;;22.27;100.00;96269.97;5103115;28;20031;-66
2023/08/23 02:37:42;;;;;;;4.32;4.03;;;;;;;22.25;100.00;96271.19;5092910;28;20027;-66
2023/08/23 02:40:08;;;;;;;5.63;4.63;;;;;;;22.21;100.00;96270.75;5102938;28;20085;-66
2023/08/23 02:42:33;;;;;;;4.57;4.20;;;;;;;22.17;100.00;96274.88;5106946;28;20031;-66
2023/08/23 02:44:58;;;;;;;4.50;4.10;;;;;;;22.13;100.00;96279.84;5075992;28;20074;-66
2023/08/23 02:47:24;;;;;;;6.38;4.47;;;;;;;22.12;100.00;96271.97;5092607;28;20030;-66
2023/08/23 02:49:49;;;;;;;5.03;4.55;;;;;;;22.11;100.00;96270.31;5108237;28;20159;-66
2023/08/23 02:52:15;;;;;;;5.55;4.05;;;;;;;22.07;100.00;96269.88;5096200;28;20024;-66
2023/08/23 02:54:40;;;;;;;4.85;4.47;;;;;;;22.02;100.00;96267.84;5093825;28;20051;-65
2023/08/23 02:57:05;;;;;;;5.25;4.75;;;;;;;21.99;100.00;96262.84;5096152;28;20038;-66
2023/08/23 02:59:31;;;;;;;4.70;4.30;;;;;;;21.97;100.00;96267.59;5103388;28;20495;-66
2023/08/23 03:01:56;;;;;;;5.25;4.60;;;;;;;21.92;100.00;96272.72;5092336;28;20028;-66
2023/08/23 03:04:21;;;;;;;4.95;4.47;;;;;;;21.92;100.00;96272.72;5107856;28;20031;-66
2023/08/23 03:06:47;;;;;;;4.55;4.25;;;;;;;21.88;100.00;96271.47;5096086;28;20587;-65
2023/08/23 03:09:12;;;;;;;6.93;4.35;;;;;;;21.89;100.00;96273.13;5095349;28;20028;-65
2023/08/23 03:11:37;;;;;;;7.20;4.38;;;;;;;21.90;100.00;96280.13;5108874;28;20055;-66
2023/08/23 03:14:03;;;;;;;4.38;4.03;;;;;;;21.86;100.00;96290.41;5097743;28;20546;-65
2023/08/23 03:16:28;;;;;;;4.93;4.50;;;;;;;21.84;100.00;96289.78;5111443;28;20028;-66
2023/08/23 03:18:54;;;;;;;4.65;4.25;;;;;;;21.81;100.00;96292.06;5103075;28;20111;-66
2023/08/23 03:21:19;;;;;;;5.93;4.65;;;;;;;21.74;100.00;96286.66;5095858;28;20559;-65
2023/08/23 03:23:44;;;;;;;5.68;4.78;;;;;;;21.66;100.00;96294.84;5110616;28;20031;-65
2023/08/23 03:26:10;;;;;;;7.32;4.18;;;;;;;21.62;100.00;96294.41;5103825;27;20072;-66
2023/08/23 03:28:35;;;;;;;4.53;4.13;;;;;;;21.61;100.00;96292.75;5106690;27;20184;-65
2023/08/23 03:31:03;;;;;;;4.63;4.30;;;;;;;21.60;100.00;96301.81;5103600;28;20076;-66
2023/08/23 03:33:28;;;;;;;5.55;4.35;;;;;;;21.60;100.00;96291.91;5101138;27;20085;-65
2023/08/23 03:35:54;;;;;;;4.70;4.30;;;;;;;21.54;100.00;96297.22;5097026;28;20096;-66
2023/08/23 03:38:19;;;;;;;4.80;4.40;;;;;;;21.51;100.00;96290.41;5106240;28;20028;-65
2023/08/23 03:40:44;;;;;;;5.25;4.70;;;;;;;21.49;100.00;96295.16;5113512;28;20039;-66
2023/08/23 03:43:10;;;;;;;4.63;4.18;;;;;;;21.46;100.00;96287.50;5096903;28;20052;-66
2023/08/23 03:45:35;;;;;;;4.68;4.38;;;;;;;21.43;100.00;96296.75;5110780;28;20039;-66
2023/08/23 03:48:01;;;;;;;5.78;4.82;;;;;;;21.45;100.00;96294.72;5106250;28;20046;-66
2023/08/23 03:50:27;;;;;;;5.40;4.90;;;;;;;21.45;100.00;96292.03;5112754;27;20023;-65
2023/08/23 03:52:53;;;;;;;9.85;4.93;;;;;;;21.44;100.00;96301.09;5087680;28;20023;-66
2023/08/23 03:55:18;;;;;;;5.28;4.82;;;;;;;21.36;100.00;96306.59;5100960;28;20028;-65
2023/08/23 03:57:43;;;;;;;4.65;4.25;;;;;;;21.31;100.00;96295.63;5096383;28;20024;-66
2023/08/23 04:00:09;;;;;;;4.82;4.05;;;;;;;21.26;100.00;96298.91;5095522;28;20020;-66
2023/08/23 04:02:35;;;;;;;5.32;4.85;;;;;;;21.27;100.00;96297.03;5096750;28;20107;-66
2023/08/23 04:05:02;;;;;;;5.30;4.82;;;;;;;21.25;100.00;96294.59;5112217;28;20027;-66
2023/08/23 04:07:27;;;;;;;7.22;4.95;;;;;;;21.21;100.00;96297.84;5096268;28;20054;-65
2023/08/23 04:09:53;;;;;;;5.28;4.70;;;;;;;21.21;100.00;96300.50;5096436;28;20028;-66
2023/08/23 04:12:18;;;;;;;6.40;4.80;;;;;;;21.20;100.00;96301.53;5104449;27;20467;-66
2023/08/23 04:14:44;;;;;;;6.65;4.63;;;;;;;21.18;100.00;96305.22;5096767;28;20026;-66
2023/08/23 04:17:09;;;;;;;5.28;4.75;;;;;;;21.20;100.00;96304.22;5109656;28;20023;-66
2023/08/23 04:19:34;;;;;;;6.05;4.63;;;;;;;21.16;100.00;96304.59;5096269;28;20052;-66
2023/08/23 04:22:00;;;;;;;6.50;4.60;;;;;;;21.15;100.00;96305.63;5095144;28;20028;-66
2023/08/23 04:24:25;;;;;;;8.10;4.78;;;;;;;21.15;100.00;96308.31;5102302;28;20066;-66
2023/08/23 04:26:51;;;;;;;8.25;4.80;;;;;;;21.14;100.00;96303.97;5119747;27;20862;-66
2023/08/23 04:29:16;;;;;;;8.35;4.60;;;;;;;21.14;100.00;96297.78;5105603;28;20050;-66
2023/08/23 04:31:41;;;;;;;5.03;4.53;;;;;;;21.12;100.00;96303.34;5096254;28;20115;-66
2023/08/23 04:34:07;;;;;;;6.78;5.03;;;;;;;21.11;100.00;96304.38;5101931;27;20051;-66
2023/08/23 04:36:32;;;;;;;4.82;4.10;;;;;;;21.11;100.00;96303.53;5094399;28;20024;-66
2023/08/23 04:38:57;;;;;;;7.57;4.85;;;;;;;21.06;100.00;96300.59;5096050;28;20038;-65
2023/08/23 04:41:23;;;;;;;5.25;4.75;;;;;;;21.02;100.00;96292.13;5095814;28;20020;-66
2023/08/23 04:43:48;;;;;;;5.47;4.80;;;;;;;21.00;100.00;96307.53;5095924;28;20027;-66
2023/08/23 04:46:14;;;;;;;7.78;5.32;;;;;;;20.98;100.00;96317.63;5103513;28;20035;-66
2023/08/23 04:48:39;;;;;;;5.18;4.68;;;;;;;20.99;100.00;96301.34;5103015;28;20035;-66
2023/08/23 04:51:09;;;;;;;5.95;5.00;;;;;;;21.00;100.00;96302.19;5094482;28;20512;-66
2023/08/23 04:53:35;;;;;;;7.13;5.57;;;;;;;21.00;100.00;96304.88;5095882;28;20020;-66
2023/08/23 04:56:00;;;;;;;11.23;10.13;;;;;;;20.98;100.00;96309.59;5095911;28;20038;-66
2023/08/23 04:58:32;;;;;;;8.80;6.80;;;;;;;21.01;100.00;96309.19;5095500;28;20111;-66
2023/08/23 05:01:04;;;;;;;6.47;5.35;;;;;;;20.97;100.00;96315.97;5094558;28;20043;-66
2023/08/23 05:03:30;;;;;;;8.75;5.05;;;;;;;20.98;100.00;96302.38;5100744;28;20030;-66
2023/08/23 05:05:57;;;;;;;8.25;5.30;;;;;;;20.96;100.00;96300.94;5094179;28;20024;-66
2023/08/23 05:08:22;;;;;;;8.23;4.78;;;;;;;20.94;100.00;96302.97;5102501;28;20040;-66
2023/08/23 05:10:55;;;;;;;8.57;5.30;;;;;;;20.93;100.00;96309.34;5105068;28;20633;-66
2023/08/23 05:13:21;;;;;;;8.25;5.28;;;;;;;20.88;100.00;96310.72;5098446;27;20484;-66
2023/08/23 05:15:54;;;;;;;8.40;5.50;;;;;;;20.85;100.00;96316.47;5094924;28;20499;-66
2023/08/23 05:18:20;;;;;;;16.38;5.28;;;;;;;20.96;100.00;96322.34;5104993;28;20028;-66
2023/08/23 05:20:45;;;;;;;10.10;5.47;;;;;;;21.01;100.00;96317.22;5098578;28;20365;-66
2023/08/23 05:23:11;;;;;;;17.65;5.65;;;;;;;20.98;100.00;96325.66;5104829;28;20032;-66
2023/08/23 05:25:36;;;;;;;8.90;5.40;;;;;;;20.92;100.00;96321.88;5095067;28;20035;-66
2023/08/23 05:28:02;;;;;;;10.27;4.78;;;;;;;20.89;100.00;96328.47;5111895;27;20032;-66
2023/08/23 05:30:27;;;;;;;7.82;4.75;;;;;;;20.85;100.00;96329.03;5093511;28;20044;-66
2023/08/23 05:32:52;;;;;;;7.32;4.82;;;;;;;20.86;100.00;96323.47;5101061;27;20575;-66
2023/08/23 05:35:18;;;;;;;7.28;5.20;;;;;;;20.86;100.00;96323.47;5104708;28;20103;-66
2023/08/23 05:37:43;;;;;;;9.05;4.97;;;;;;;20.87;100.00;96322.44;5094518;28;20034;-66
2023/08/23 05:40:09;;;;;;;5.35;4.85;;;;;;;20.87;100.00;96327.00;5105412;28;20023;-66
2023/08/23 05:42:34;;;;;;;4.85;4.38;;;;;;;20.89;100.00;96325.78;5097442;28;20070;-66
2023/08/23 05:45:00;;;;;;;7.07;4.88;;;;;;;20.86;100.00;96331.50;5094615;28;20087;-66
2023/08/23 05:47:25;;;;;;;6.60;4.95;;;;;;;20.85;100.00;96334.38;5092851;28;20023;-66
2023/08/23 05:49:51;;;;;;;10.32;5.15;;;;;;;20.86;100.00;96338.72;5104403;28;20031;-66
2023/08/23 05:52:16;;;;;;;8.18;5.60;;;;;;;20.96;100.00;96335.72;5096552;28;20027;-66
2023/08/23 05:54:42;;;;;;;5.85;4.95;;;;;;;20.94;100.00;96327.88;5094389;28;20834;-66
2023/08/23 05:57:07;;;;;;;8.90;4.88;;;;;;;20.98;100.00;96333.69;5093306;28;20016;-66
2023/08/23 05:59:33;;;;;;;6.85;5.30;;;;;;;20.99;100.00;96338.00;5095190;28;20420;-66
2023/08/23 06:01:59;;;;;;;9.30;5.63;;;;;;;21.03;100.00;96339.28;5094242;28;20035;-66
2023/08/23 06:04:24;;;;;;;5.80;5.13;;;;;;;21.12;100.00;96340.81;5095016;28;20127;-66
2023/08/23 06:06:49;;;;;;;8.27;4.75;;;;;;;21.10;100.00;96345.50;5094201;28;20583;-66
2023/08/23 06:09:17;;;;;;;6.47;5.32;;;;;;;21.13;100.00;96345.16;5092918;28;20706;-66
2023/08/23 06:11:42;;;;;;;7.50;4.80;;;;;;;21.18;100.00;96345.38;5093766;28;20496;-65
2023/08/23 06:14:24;;;;;;;7.30;5.57;;;;;;;21.23;100.00;96339.47;5094593;28;20028;-65
2023/08/23 06:16:50;;;;;;;5.45;4.95;;;;;;;21.28;100.00;96349.56;5094136;28;20031;-66
2023/08/23 06:19:16;;;;;;;6.40;5.30;;;;;;;21.31;100.00;96346.50;5098548;28;20085;-65
2023/08/23 06:21:41;;;;;;;9.65;5.47;;;;;;;21.42;100.00;96339.78;5093935;28;20085;-66
2023/08/23 06:24:08;;;;;;;7.13;5.10;;;;;;;21.58;100.00;96341.38;5098741;28;20149;-65
2023/08/23 06:26:33;;;;;;;6.00;4.93;;;;;;;21.66;100.00;96341.22;5094988;28;20500;-66
2023/08/23 06:28:59;;;;;;;7.68;4.70;;;;;;;21.80;100.00;96338.66;5098625;28;20412;-66
2023/08/23 06:31:24;;;;;;;5.57;5.07;;;;;;;21.97;100.00;96323.88;5098289;28;20034;-66
2023/08/23 06:33:50;;;;;;;6.70;4.75;;;;;;;22.19;100.00;96326.44;5082832;28;20050;-66
2023/08/23 06:36:15;;;;;;;7.28;4.43;;;;;;;22.36;100.00;96326.09;5095204;28;20050;-66
2023/08/23 06:38:41;;;;;;;4.75;4.28;;;;;;;22.56;100.00;96321.66;5101802;28;20404;-66
2023/08/23 06:41:06;;;;;;;5.40;4.88;;;;;;;22.80;100.00;96306.00;5093590;28;20020;-66
2023/08/23 06:43:32;;;;;;;4.60;3.90;;;;;;;23.01;100.00;96294.28;5095073;28;20027;-66
2023/08/23 06:45:57;;;;;;;5.95;4.05;;;;;;;23.16;100.00;96283.31;5099587;28;20028;-66
2023/08/23 06:48:23;;;;;;;6.38;4.65;;;;;;;23.32;100.00;96275.88;5104181;28;20067;-66
2023/08/23 06:50:48;;;;;;;5.45;4.28;;;;;;;23.34;100.00;96273.00;5113493;27;20031;-66
2023/08/23 06:53:14;;;;;;;6.10;4.30;;;;;;;23.51;100.00;96278.75;5099534;28;20063;-65
2023/08/23 06:55:40;;;;;;;5.03;4.05;;;;;;;23.72;100.00;96277.69;5106287;28;20387;-66
2023/08/23 06:58:07;;;;;;;5.72;4.43;;;;;;;23.95;100.00;96279.84;5107897;28;20054;-66
2023/08/23 07:00:33;;;;;;;5.15;4.07;;;;;;;24.21;100.00;96277.31;5104868;28;20472;-66
2023/08/23 07:02:59;;;;;;;4.90;4.40;;;;;;;24.41;100.00;96272.66;5104125;28;20077;-66
2023/08/23 07:05:24;;;;;;;5.35;4.00;;;;;;;24.74;100.00;96268.91;5100324;28;20083;-65
2023/08/23 07:07:50;;;;;;;4.57;3.95;;;;;;;25.05;100.00;96255.66;5100648;28;20031;-66
2023/08/23 07:10:15;;;;;;;7.95;4.38;;;;;;;25.30;100.00;96249.41;5101044;28;20473;-66
2023/08/23 07:12:41;;;;;;;5.20;3.83;;;;;;;25.64;100.00;96257.19;5100451;28;20020;-66
2023/08/23 07:15:06;;;;;;;6.93;4.82;;;;;;;25.84;100.00;96247.00;5100430;28;20028;-66
2023/08/23 07:17:33;;;;;;;8.05;4.80;;;;;;;26.13;100.00;96244.59;5111680;28;20043;-66
2023/08/23 07:19:58;;;;;;;9.00;4.63;;;;;;;26.47;100.00;96241.47;5092039;28;20032;-66
2023/08/23 07:22:24;;;;;;;4.50;4.05;;;;;;;26.80;100.00;96240.13;5101545;28;20026;-65
2023/08/23 07:24:49;;;;;;;4.80;3.60;;;;;;;27.03;100.00;96238.53;5100341;28;20035;-66
2023/08/23 07:27:15;;;;;;;4.07;3.72;;;;;;;27.23;100.00;96229.28;5117080;27;20019;-66
2023/08/23 07:29:40;;;;;;;7.28;3.65;;;;;;;27.43;100.00;96228.94;5100376;28;20404;-66
2023/08/23 07:32:06;;;;;;;5.65;3.63;;;;;;;27.59;100.00;96225.50;5108246;28;20110;-66
2023/08/23 07:34:31;;;;;;;9.48;3.72;;;;;;;27.82;100.00;96215.69;5117738;27;20008;-66
2023/08/23 07:36:57;;;;;;;8.82;4.00;;;;;;;28.09;100.00;96222.44;5100769;28;20036;-66
2023/08/23 07:39:24;;;;;;;17.38;3.78;;;;;;;28.27;100.00;96214.16;5099706;28;20121;-66
2023/08/23 07:41:50;;;;;;;29.08;4.13;;;;;;;28.75;100.00;96213.91;5100242;28;20030;-66
2023/08/23 07:44:15;;;;;;;9.40;3.75;;;;;;;29.07;100.00;96210.66;5100053;28;20123;-66
2023/08/23 07:46:41;;;;;;;5.72;3.33;;;;;;;29.28;100.00;96210.94;5101882;28;20046;-66
2023/08/23 07:49:06;;;;;;;6.03;3.42;;;;;;;29.36;100.00;96215.13;5119453;27;20392;-66
2023/08/23 07:51:32;;;;;;;10.05;3.75;;;;;;;29.47;100.00;96213.41;5107491;28;20063;-66
2023/08/23 07:53:57;;;;;;;8.30;3.42;;;;;;;29.70;100.00;96212.34;5098702;28;20102;-66
2023/08/23 07:56:23;;;;;;;10.38;3.75;;;;;;;29.85;100.00;96217.16;5104587;28;20054;-66
2023/08/23 07:58:48;;;;;;;8.02;3.67;;;;;;;29.72;100.00;96212.91;5097408;28;20488;-66
2023/08/23 08:01:14;;;;;;;4.70;3.50;;;;;;;29.73;100.00;96220.81;5098266;28;20058;-66
2023/08/23 08:03:39;;;;;;;10.60;3.40;;;;;;;29.75;100.00;96217.84;5097178;28;20028;-66
2023/08/23 08:06:06;;;;;;;5.32;3.35;;;;;;;29.83;100.00;96213.88;5096355;28;20024;-66
2023/08/23 08:08:32;;;;;;;9.98;3.60;;;;;;;29.95;100.00;96222.69;5101156;28;20026;-66
2023/08/23 08:10:58;;;;;;;9.93;3.38;;;;;;;30.23;100.00;96210.00;5104886;28;20084;-66
2023/08/23 08:13:24;;;;;;;4.57;3.40;;;;;;;30.47;100.00;96211.59;5096284;28;20020;-66
2023/08/23 08:15:49;;;;;;;3.58;3.28;;;;;;;30.57;100.00;96217.94;5097400;28;20023;-66
2023/08/23 08:18:15;;;;;;;4.93;3.30;;;;;;;30.78;100.00;96212.72;5095351;28;20045;-66
2023/08/23 08:20:40;;;;;;;8.15;3.40;;;;;;;30.81;100.00;96217.63;5109055;28;20024;-67
2023/08/23 08:23:06;;;;;;;6.45;3.67;;;;;;;30.94;100.00;96210.94;5096511;28;20100;-66
2023/08/23 08:25:31;;;;;;;4.90;3.65;;;;;;;31.19;100.00;96211.38;5094646;28;20408;-66
2023/08/23 08:27:57;;;;;;;4.15;3.83;;;;;;;31.10;100.00;96220.03;5114140;27;20028;-67
2023/08/23 08:30:22;;;;;;;6.82;4.47;;;;;;;31.16;100.00;96210.84;5095764;28;20522;-66
2023/08/23 08:32:48;;;;;;;5.28;3.53;;;;;;;31.26;100.00;96212.00;5111348;27;20035;-66
2023/08/23 08:35:13;;;;;;;3.88;3.20;;;;;;;31.31;100.00;96209.34;5106271;28;20020;-66
2023/08/23 08:37:38;;;;;;;5.07;3.80;;;;;;;31.18;100.00;96212.47;5112839;27;20035;-66
2023/08/23 08:40:04;;;;;;;3.80;3.50;;;;;;;31.50;100.00;96208.88;5106108;28;20062;-66
2023/08/23 08:42:30;;;;;;;4.13;3.72;;;;;;;31.67;100.00;96217.66;5099294;28;20577;-66
2023/08/23 08:44:56;;;;;;;5.68;3.90;;;;;;;31.89;100.00;96207.75;5095977;28;20093;-66
2023/08/23 08:47:25;;;;;;;5.20;3.50;;;;;;;32.02;100.00;96207.22;5098597;28;20015;-67
2023/08/23 08:49:50;;;;;;;6.45;3.80;;;;;;;32.22;100.00;96209.19;5102851;28;20072;-66
2023/08/23 08:52:19;;;;;;;7.18;3.67;;;;;;;32.20;100.00;96205.94;5097308;28;20511;-66
2023/08/23 08:54:47;;;;;;;5.90;3.58;;;;;;;32.15;100.00;96206.72;5095495;28;20451;-67
2023/08/23 08:57:14;;;;;;;4.47;4.07;;;;;;;32.36;100.00;96200.53;5100177;28;20027;-67
2023/08/23 08:59:42;;;;;;;3.78;3.42;;;;;;;32.78;100.00;96193.22;5104470;28;20433;-66
2023/08/23 09:02:10;;;;;;;5.97;3.97;;;;;;;32.91;100.00;96194.63;5101228;28;20015;-66
2023/08/23 09:04:38;;;;;;;6.43;3.33;;;;;;;32.86;100.00;96198.94;5103001;28;20031;-66
2023/08/23 09:07:03;;;;;;;4.15;3.85;;;;;;;32.81;100.00;96200.84;5094977;28;20470;-66
2023/08/23 09:09:30;;;;;;;5.55;3.40;;;;;;;32.84;100.00;96195.69;5096417;28;20081;-65
2023/08/23 09:11:55;;;;;;;5.03;3.78;;;;;;;32.80;100.00;96197.28;5096197;28;20019;-66
2023/08/23 09:14:21;;;;;;;4.57;3.50;;;;;;;33.07;100.00;96195.41;5101902;28;20109;-66
2023/08/23 09:16:47;;;;;;;3.80;3.47;;;;;;;33.17;100.00;96192.69;5105487;28;20490;-66
2023/08/23 09:19:13;;;;;;;5.55;3.78;;;;;;;33.38;100.00;96196.16;5113731;28;20024;-66
2023/08/23 09:21:48;;;;;;;3.47;3.05;;;;;;;33.53;100.00;96203.53;5104252;28;20441;-66
2023/08/23 09:24:14;;;;;;;6.60;3.40;;;;;;;33.34;100.00;96202.44;5113456;28;20046;-66
2023/08/23 09:26:40;;;;;;;5.85;3.53;;;;;;;33.01;100.00;96202.78;5117904;27;20023;-65
2023/08/23 09:29:05;;;;;;;4.00;3.60;;;;;;;33.13;100.00;96197.84;5104100;27;20044;-65
2023/08/23 09:31:31;;;;;;;4.03;3.40;;;;;;;33.08;100.00;96202.50;5106380;28;20020;-65
2023/08/23 09:33:58;;;;;;;6.65;3.70;;;;;;;33.07;100.00;96193.50;5102182;27;20107;-65
2023/08/23 09:36:28;;;;;;;4.25;3.92;;;;;;;33.16;100.00;96182.88;5101025;28;20028;-65
2023/08/23 09:38:56;;;;;;;3.90;3.60;;;;;;;33.57;100.00;96184.69;5101143;28;20024;-65
2023/08/23 09:41:25;;;;;;;5.57;3.65;;;;;;;33.61;100.00;96184.97;5094946;28;20027;-65
2023/08/23 09:43:56;;;;;;;5.07;3.58;;;;;;;33.59;100.00;96174.31;5095978;28;20052;-65
2023/08/23 09:46:28;;;;;;;4.30;3.67;;;;;;;33.65;100.00;96175.13;5106202;28;20020;-65
2023/08/23 09:48:54;;;;;;;5.38;3.42;;;;;;;33.57;100.00;96171.03;5111631;27;20031;-65
2023/08/23 09:51:24;;;;;;;5.70;3.88;;;;;;;33.72;100.00;96171.00;5104856;28;20057;-65
2023/08/23 09:53:56;;;;;;;4.25;3.63;;;;;;;34.03;100.00;96164.56;5098001;28;20050;-65
2023/08/23 09:56:22;;;;;;;5.18;3.50;;;;;;;34.06;100.00;96158.56;5102014;28;20035;-65
2023/08/23 09:58:48;;;;;;;4.40;4.00;;;;;;;33.95;100.00;96160.50;5094725;28;20103;-65
2023/08/23 10:01:16;;;;;;;3.85;3.53;;;;;;;33.80;100.00;96157.84;5096502;28;20057;-65
2023/08/23 10:03:42;;;;;;;5.40;3.42;;;;;;;33.92;100.00;96152.84;5096065;28;20050;-65
2023/08/23 10:06:08;;;;;;;4.15;3.38;;;;;;;33.95;100.00;96152.31;5106303;28;20073;-65
2023/08/23 10:08:35;;;;;;;5.57;3.08;;;;;;;34.03;100.00;96152.84;5095809;27;20077;-65
2023/08/23 10:11:01;;;;;;;3.55;3.10;;;;;;;34.13;100.00;96153.59;5094437;28;20024;-65
2023/08/23 10:13:27;;;;;;;3.72;3.40;;;;;;;34.20;100.00;96144.25;5107519;28;20388;-65
2023/08/23 10:15:55;;;;;;;4.75;3.10;;;;;;;34.26;100.00;96141.22;5103763;28;20020;-65
2023/08/23 10:18:23;;;;;;;4.28;3.63;;;;;;;34.40;100.00;96146.06;5094110;28;20062;-65
2023/08/23 10:20:51;;;;;;;3.78;3.35;;;;;;;34.25;100.00;96136.84;5093873;28;20468;-65
2023/08/23 10:23:18;;;;;;;4.78;3.20;;;;;;;34.47;100.00;96137.50;5098942;28;20051;-65
2023/08/23 10:25:45;;;;;;;5.15;3.17;;;;;;;34.56;100.00;96144.84;5101571;28;20032;-65
2023/08/23 10:28:13;;;;;;;4.47;3.00;;;;;;;34.77;100.00;96131.00;5094170;28;20024;-65
2023/08/23 10:30:43;;;;;;;6.22;2.92;;;;;;;34.65;100.00;96130.59;5098966;28;20048;-65
2023/08/23 10:33:10;;;;;;;5.40;3.05;;;;;;;34.92;100.00;96129.22;5093376;28;20050;-65
2023/08/23 10:35:38;;;;;;;5.53;3.40;;;;;;;35.22;100.00;96122.66;5093716;28;20403;-65
2023/08/23 10:38:08;;;;;;;5.65;3.85;;;;;;;35.43;100.00;96117.75;5094068;28;20102;-65
2023/08/23 10:40:35;;;;;;;5.93;3.05;;;;;;;35.49;100.00;96109.50;5093844;28;20028;-65
2023/08/23 10:43:11;;;;;;;3.53;3.22;;;;;;;35.49;100.00;96104.81;5092808;28;20515;-65
2023/08/23 10:46:02;;;;;;;5.25;3.13;;;;;;;35.26;100.00;96106.47;5097794;28;20039;-64
2023/08/23 10:48:27;;;;;;;3.75;3.08;;;;;;;35.38;100.00;96098.66;5093750;28;20032;-65
2023/08/23 10:50:54;;;;;;;3.60;3.30;;;;;;;35.49;100.00;96093.09;5103316;28;20027;-65
2023/08/23 10:53:19;;;;;;;4.30;2.95;;;;;;;35.47;100.00;96096.09;5093695;28;20097;-65
2023/08/23 10:55:47;;;;;;;3.28;2.88;;;;;;;35.83;100.00;96089.34;5104840;28;20020;-65
2023/08/23 10:58:13;;;;;;;4.82;2.97;;;;;;;35.90;100.00;96089.78;5093777;28;20032;-65
2023/08/23 11:00:41;;;;;;;4.70;3.35;;;;;;;35.73;100.00;96087.56;5098778;28;20115;-65
2023/08/23 11:03:08;;;;;;;3.95;2.85;;;;;;;35.98;100.00;96089.16;5093698;28;20039;-65
2023/08/23 11:05:34;;;;;;;6.60;3.10;;;;;;;36.13;100.00;96079.06;5075457;28;20406;-64
2023/08/23 11:08:00;;;;;;;3.50;2.92;;;;;;;36.34;100.00;96079.56;5093915;28;20035;-64
2023/08/23 11:10:25;;;;;;;3.38;3.10;;;;;;;36.35;100.00;96078.47;5101413;28;20011;-64
2023/08/23 11:12:51;;;;;;;4.90;2.80;;;;;;;36.54;100.00;96085.88;5097849;28;20039;-64
2023/08/23 11:15:17;;;;;;;4.25;3.20;;;;;;;36.87;100.00;96079.53;5100476;28;20051;-64
2023/08/23 11:17:42;;;;;;;7.63;2.92;;;;;;;36.93;100.00;96073.66;5112688;28;20023;-65
2023/08/23 11:20:10;;;;;;;4.07;2.97;;;;;;;36.84;100.00;96079.03;5100390;28;20082;-64
2023/08/23 11:22:35;;;;;;;5.32;3.10;;;;;;;36.72;100.00;96070.47;5098805;28;20051;-64